createdAt,value
2022-09-05T00:02:07.890Z,2.80
2022-09-05T00:04:50.676Z,2.97
2022-09-05T00:07:38.756Z,2.87
2022-09-05T00:10:21.950Z,3.07
2022-09-05T00:12:52.035Z,3.20
2022-09-05T00:15:52.562Z,3.33
2022-09-05T00:24:23.243Z,3.30
2022-09-05T00:24:27.139Z,3.13
2022-09-05T00:25:00.789Z,3.33
2022-09-05T00:27:29.014Z,3.70
2022-09-05T00:31:06.625Z,3.50
2022-09-05T00:32:55.863Z,3.00
2022-09-05T00:35:40.706Z,3.10
2022-09-05T00:38:15.245Z,3.10
2022-09-05T00:40:44.582Z,3.13
2022-09-05T00:43:13.736Z,2.90
2022-09-05T00:45:40.030Z,3.17
2022-09-05T00:48:13.155Z,3.23
2022-09-05T00:50:56.376Z,3.20
2022-09-05T00:53:28.845Z,3.03
2022-09-05T00:56:13.698Z,3.10
2022-09-05T00:58:58.684Z,3.20
2022-09-05T01:01:27.499Z,3.07
2022-09-05T01:04:08.761Z,3.43
2022-09-05T01:06:53.927Z,3.20
2022-09-05T01:09:33.442Z,3.03
2022-09-05T01:12:08.607Z,2.80
2022-09-05T01:14:47.225Z,3.17
2022-09-05T01:17:32.321Z,2.93
2022-09-05T01:20:29.894Z,2.93
2022-09-05T01:23:22.174Z,3.03
2022-09-05T01:25:55.117Z,3.10
2022-09-05T01:29:15.088Z,3.00
2022-09-05T01:31:37.650Z,3.07
2022-09-05T01:34:31.829Z,3.10
2022-09-05T01:37:03.113Z,3.13
2022-09-05T01:40:12.205Z,2.87
2022-09-05T01:42:44.826Z,2.97
2022-09-05T01:45:38.725Z,3.10
2022-09-05T01:48:17.564Z,2.90
2022-09-05T01:50:49.625Z,3.33
2022-09-05T01:53:36.507Z,3.10
2022-09-05T01:56:21.039Z,3.30
2022-09-05T01:59:05.953Z,3.47
2022-09-05T02:01:51.041Z,3.07
2022-09-05T02:04:25.841Z,3.20
2022-09-05T02:07:19.828Z,3.03
2022-09-05T02:10:15.842Z,3.20
2022-09-05T02:13:02.452Z,3.20
2022-09-05T02:15:59.329Z,3.07
2022-09-05T02:18:40.214Z,2.87
2022-09-05T02:21:10.420Z,3.23
2022-09-05T02:23:42.737Z,2.90
2022-09-05T02:26:23.077Z,3.30
2022-09-05T02:28:49.426Z,3.50
2022-09-05T02:31:20.942Z,2.70
2022-09-05T02:33:53.003Z,3.20
2022-09-05T02:36:45.889Z,3.20
2022-09-05T02:44:51.555Z,3.40
2022-09-05T02:45:08.710Z,2.90
2022-09-05T02:45:27.459Z,2.97
2022-09-05T02:47:54.463Z,2.87
2022-09-05T02:53:45.560Z,3.00
2022-09-05T02:57:26.057Z,3.33
2022-09-05T02:57:32.760Z,2.90
2022-09-05T02:59:11.964Z,3.17
2022-09-05T03:01:57.265Z,3.30
2022-09-05T03:04:29.809Z,2.77
2022-09-05T03:07:14.917Z,3.00
2022-09-05T03:09:50.586Z,3.23
2022-09-05T03:12:28.856Z,3.13
2022-09-05T03:15:19.434Z,2.97
2022-09-05T03:17:49.437Z,3.03
2022-09-05T03:20:25.103Z,3.40
2022-09-05T03:22:53.017Z,3.00
2022-09-05T03:25:38.286Z,3.30
2022-09-05T03:28:14.287Z,3.33
2022-09-05T03:30:59.468Z,2.80
2022-09-05T03:33:25.876Z,3.20
2022-09-05T03:35:58.428Z,3.07
2022-09-05T03:38:34.080Z,3.60
2022-09-05T03:41:00.411Z,2.90
2022-09-05T03:43:42.692Z,3.00
2022-09-05T03:46:17.969Z,3.20
2022-09-05T03:48:50.489Z,3.07
2022-09-05T03:57:14.197Z,3.60
2022-09-05T03:57:25.814Z,3.53
2022-09-05T03:57:41.735Z,3.13
2022-09-05T04:00:10.396Z,3.57
2022-09-05T04:08:14.636Z,3.63
2022-09-05T04:08:16.373Z,3.43
2022-09-05T04:08:42.345Z,3.30
2022-09-05T04:11:14.444Z,3.10
2022-09-05T04:13:46.212Z,3.73
2022-09-05T04:16:12.602Z,3.10
2022-09-05T04:18:45.713Z,3.40
2022-09-05T04:21:18.824Z,2.90
2022-09-05T04:23:53.033Z,3.40
2022-09-05T04:26:38.152Z,3.00
2022-09-05T04:29:15.097Z,3.10
2022-09-05T04:31:49.928Z,3.30
2022-09-05T04:34:33.915Z,3.20
2022-09-05T04:37:01.967Z,3.13
2022-09-05T04:39:29.196Z,3.17
2022-09-05T04:42:04.434Z,3.50
2022-09-05T04:44:33.537Z,4.00
2022-09-05T04:47:05.470Z,3.13
2022-09-05T04:49:33.827Z,3.13
2022-09-05T04:52:06.300Z,3.40
2022-09-05T04:54:33.071Z,3.50
2022-09-05T04:57:13.641Z,3.00
2022-09-05T05:04:38.133Z,3.07
2022-09-05T05:06:09.963Z,3.60
2022-09-05T05:06:13.321Z,3.00
2022-09-05T05:08:15.720Z,3.60
2022-09-05T05:17:55.152Z,3.10
2022-09-05T05:17:59.309Z,3.17
2022-09-05T05:18:14.228Z,3.40
2022-09-05T05:20:39.408Z,3.60
2022-09-05T05:22:34.424Z,3.27
2022-09-05T05:25:01.362Z,3.53
2022-09-05T05:27:41.031Z,3.57
2022-09-05T05:30:11.874Z,3.50
2022-09-05T05:32:46.753Z,3.17
2022-09-05T05:35:14.575Z,3.73
2022-09-05T05:37:50.273Z,3.20
2022-09-05T05:40:16.652Z,3.50
2022-09-05T05:42:43.842Z,3.37
2022-09-05T05:45:36.272Z,2.90
2022-09-05T05:48:17.689Z,3.30
2022-09-05T05:50:55.355Z,3.30
2022-09-05T05:53:37.422Z,3.40
2022-09-05T05:56:22.458Z,3.33
2022-09-05T05:58:57.004Z,3.70
2022-09-05T06:01:38.959Z,3.33
2022-09-05T06:04:23.768Z,3.53
2022-09-05T06:07:09.935Z,3.50
2022-09-05T06:14:48.780Z,3.30
2022-09-05T06:14:57.127Z,3.23
2022-09-05T06:16:01.409Z,3.57
2022-09-05T06:18:45.742Z,3.10
2022-09-05T06:22:11.280Z,3.37
2022-09-05T06:24:21.242Z,3.00
2022-09-05T06:26:50.974Z,3.10
2022-09-05T06:29:17.299Z,2.93
2022-09-05T06:31:43.880Z,3.20
2022-09-05T06:34:35.463Z,2.97
2022-09-05T06:37:21.159Z,2.67
2022-09-05T06:39:47.980Z,2.90
2022-09-05T06:42:26.790Z,2.90
2022-09-05T06:45:27.178Z,2.83
2022-09-05T06:47:58.575Z,2.73
2022-09-05T06:50:28.214Z,2.97
2022-09-05T06:53:26.462Z,3.03
2022-09-05T06:56:08.629Z,3.20
2022-09-05T06:58:41.963Z,3.27
2022-09-05T07:01:10.122Z,3.50
2022-09-05T07:03:56.026Z,2.87
2022-09-05T07:07:00.990Z,3.40
2022-09-05T07:09:28.740Z,2.87
2022-09-05T07:12:02.993Z,2.80
2022-09-05T07:14:32.144Z,3.00
2022-09-05T07:17:10.807Z,2.93
2022-09-05T07:19:37.487Z,3.37
2022-09-05T07:22:04.342Z,3.70
2022-09-05T07:24:53.556Z,3.33
2022-09-05T07:27:33.138Z,3.40
2022-09-05T07:30:08.567Z,3.53
2022-09-05T07:32:41.437Z,3.47
2022-09-05T07:35:11.977Z,3.00
2022-09-05T07:37:40.549Z,2.87
2022-09-05T07:40:21.668Z,2.93
2022-09-05T07:43:09.413Z,2.50
2022-09-05T07:45:52.157Z,2.97
2022-09-05T07:48:34.282Z,3.20
2022-09-05T07:56:47.473Z,2.57
2022-09-05T07:57:01.600Z,2.67
2022-09-05T07:59:43.031Z,2.23
2022-09-05T08:02:11.601Z,2.60
2022-09-05T08:04:39.460Z,2.53
2022-09-05T08:07:47.058Z,2.63
2022-09-05T08:10:09.391Z,3.00
2022-09-05T08:13:22.755Z,2.50
2022-09-05T08:15:26.955Z,2.63
2022-09-05T08:18:32.187Z,3.03
2022-09-05T08:21:07.968Z,2.70
2022-09-05T08:23:43.603Z,2.40
2022-09-05T08:26:14.682Z,2.73
2022-09-05T08:28:53.534Z,2.80
2022-09-05T08:31:21.854Z,2.57
2022-09-05T08:33:49.084Z,2.87
2022-09-05T08:36:21.511Z,2.50
2022-09-05T08:38:49.389Z,2.40
2022-09-05T08:41:43.198Z,2.27
2022-09-05T08:46:47.281Z,2.30
2022-09-05T08:47:24.871Z,2.10
2022-09-05T08:50:00.213Z,2.20
2022-09-05T08:52:44.927Z,2.30
2022-09-05T08:55:20.347Z,2.10
2022-09-05T08:57:46.995Z,2.33
2022-09-05T09:00:20.612Z,2.17
2022-09-05T09:03:04.018Z,1.93
2022-09-05T09:06:12.577Z,2.00
2022-09-05T09:08:51.076Z,1.87
2022-09-05T09:11:23.310Z,1.80
2022-09-05T09:13:54.551Z,2.07
2022-09-05T09:16:30.149Z,1.80
2022-09-05T09:18:56.531Z,1.90
2022-09-05T09:21:31.955Z,2.10
2022-09-05T09:24:06.743Z,1.93
2022-09-05T09:26:36.478Z,2.20
2022-09-05T09:29:10.290Z,1.93
2022-09-05T09:31:55.410Z,1.87
2022-09-05T09:34:25.257Z,2.10
2022-09-05T09:37:11.124Z,1.80
2022-09-05T09:39:46.412Z,2.20
2022-09-05T09:42:33.610Z,2.17
2022-09-05T09:45:28.015Z,1.80
2022-09-05T09:48:02.669Z,2.00
2022-09-05T09:50:32.054Z,2.00
2022-09-05T09:52:59.198Z,1.80
2022-09-05T09:55:27.115Z,2.20
2022-09-05T09:57:56.244Z,2.17
2022-09-05T10:00:24.166Z,1.80
2022-09-05T10:04:54.266Z,2.20
2022-09-05T10:10:35.163Z,1.87
2022-09-05T10:10:49.220Z,2.00
2022-09-05T10:11:55.053Z,2.20
2022-09-05T10:14:48.199Z,2.30
2022-09-05T10:17:35.115Z,2.13
2022-09-05T10:20:10.405Z,2.00
2022-09-05T10:22:40.275Z,1.90
2022-09-05T10:25:13.743Z,1.90
2022-09-05T10:28:05.204Z,2.30
2022-09-05T10:31:10.020Z,2.17
2022-09-05T10:35:12.866Z,2.13
2022-09-05T10:36:17.605Z,1.93
2022-09-05T10:38:45.345Z,2.50
2022-09-05T10:41:22.206Z,2.17
2022-09-05T10:43:52.159Z,2.03
2022-09-05T10:46:49.682Z,2.03
2022-09-05T10:49:15.172Z,1.77
2022-09-05T10:51:51.870Z,1.63
2022-09-05T10:54:24.698Z,2.00
2022-09-05T10:56:57.170Z,1.67
2022-09-05T11:02:19.908Z,1.60
2022-09-05T11:02:46.539Z,2.47
2022-09-05T11:05:26.588Z,1.80
2022-09-05T11:08:11.824Z,3.47
2022-09-05T11:10:45.135Z,3.17
2022-09-05T11:13:16.178Z,3.10
2022-09-05T11:15:56.158Z,2.20
2022-09-05T11:18:55.031Z,1.73
2022-09-05T11:21:26.144Z,1.53
2022-09-05T11:23:57.486Z,1.03
2022-09-05T11:26:33.890Z,2.77
2022-09-05T11:29:06.554Z,3.33
2022-09-05T11:32:40.066Z,1.60
2022-09-05T11:40:05.509Z,0.90
2022-09-05T11:40:06.271Z,1.27
2022-09-05T11:41:04.922Z,0.90
2022-09-05T11:44:02.448Z,0.75
2022-09-05T11:46:43.055Z,0.98
2022-09-05T11:49:09.421Z,0.63
2022-09-05T11:51:55.778Z,0.80
2022-09-05T11:54:28.234Z,0.80
2022-09-05T11:57:15.684Z,0.90
2022-09-05T12:00:33.817Z,0.60
2022-09-05T12:03:06.229Z,0.98
2022-09-05T12:05:49.971Z,0.98
2022-09-05T12:08:31.360Z,0.90
2022-09-05T12:11:16.673Z,0.88
2022-09-05T12:13:48.168Z,0.80
2022-09-05T12:16:19.995Z,0.70
2022-09-05T12:19:19.103Z,0.70
2022-09-05T12:22:10.233Z,0.90
2022-09-05T12:25:26.040Z,0.60
2022-09-05T12:29:27.346Z,0.70
2022-09-05T12:32:31.157Z,0.90
2022-09-05T12:36:11.564Z,0.80
2022-09-05T12:36:44.569Z,0.70
2022-09-05T12:41:35.630Z,0.60
2022-09-05T12:42:54.758Z,0.65
2022-09-05T12:45:37.061Z,0.63
2022-09-05T12:48:12.841Z,0.70
2022-09-05T12:50:56.896Z,0.75
2022-09-05T12:53:24.832Z,0.80
2022-09-05T12:56:23.508Z,0.70
2022-09-05T13:02:57.556Z,0.80
2022-09-05T13:03:01.951Z,0.98
2022-09-05T13:04:30.176Z,0.75
2022-09-05T13:07:05.587Z,0.70
2022-09-05T13:10:36.540Z,0.70
2022-09-05T13:14:56.089Z,0.80
2022-09-05T13:15:36.399Z,0.82
2022-09-05T13:18:10.212Z,0.82
2022-09-05T13:20:39.351Z,0.70
2022-09-05T13:23:05.767Z,0.90
2022-09-05T13:25:34.343Z,0.82
2022-09-05T13:28:06.636Z,0.90
2022-09-05T13:33:50.497Z,0.80
2022-09-05T13:38:01.200Z,1.00
2022-09-05T13:38:11.403Z,0.90
2022-09-05T13:39:38.743Z,1.35
2022-09-05T13:42:05.827Z,0.90
2022-09-05T13:44:37.476Z,0.93
2022-09-05T13:47:29.857Z,1.38
2022-09-05T13:50:05.233Z,1.20
2022-09-05T13:52:34.001Z,1.10
2022-09-05T13:55:17.391Z,1.10
2022-09-05T13:58:07.135Z,1.10
2022-09-05T14:00:38.562Z,1.15
2022-09-05T14:06:45.018Z,1.08
2022-09-05T14:09:37.683Z,1.30
2022-09-05T14:12:08.091Z,1.10
2022-09-05T14:20:36.975Z,1.20
2022-09-05T14:23:08.714Z,1.20
2022-09-05T14:25:38.887Z,1.17
2022-09-05T14:28:07.477Z,1.30
2022-09-05T14:32:51.746Z,1.15
2022-09-05T14:37:50.982Z,1.23
2022-09-05T14:37:51.910Z,1.10
2022-09-05T14:39:31.672Z,1.13
2022-09-05T14:42:21.618Z,1.10
2022-09-05T14:44:59.212Z,1.00
2022-09-05T14:47:52.061Z,1.10
2022-09-05T14:50:30.059Z,1.10
2022-09-05T14:56:59.762Z,1.02
2022-09-05T15:02:52.184Z,1.25
2022-09-05T15:02:55.254Z,1.00
2022-09-05T15:04:50.518Z,1.13
2022-09-05T15:07:29.177Z,1.20
2022-09-05T15:12:16.830Z,1.00
2022-09-05T15:13:02.384Z,1.20
2022-09-05T15:15:30.934Z,1.20
2022-09-05T15:18:20.490Z,1.20
2022-09-05T15:20:48.359Z,1.20
2022-09-05T15:23:25.563Z,1.17
2022-09-05T15:25:55.677Z,1.27
2022-09-05T15:28:32.814Z,1.20
2022-09-05T15:31:01.079Z,2.00
2022-09-05T15:33:29.217Z,1.90
2022-09-05T15:35:56.672Z,1.93
2022-09-05T15:38:25.454Z,2.00
2022-09-05T15:41:10.175Z,2.00
2022-09-05T15:43:38.491Z,1.60
2022-09-05T15:46:05.354Z,1.83
2022-09-05T15:48:34.016Z,1.80
2022-09-05T15:51:04.838Z,1.63
2022-09-05T15:53:34.411Z,1.73
2022-09-05T15:56:09.891Z,1.70
2022-09-05T15:58:53.132Z,1.90
2022-09-05T16:01:59.078Z,1.70
2022-09-05T16:10:28.917Z,2.50
2022-09-05T16:10:37.466Z,2.73
2022-09-05T16:10:41.914Z,3.40
2022-09-05T16:12:53.236Z,2.60
2022-09-05T16:19:36.248Z,2.13
2022-09-05T16:23:13.470Z,1.90
2022-09-05T16:23:31.194Z,2.40
2022-09-05T16:24:16.622Z,2.00
2022-09-05T16:26:46.746Z,1.87
2022-09-05T16:29:25.225Z,1.83
2022-09-05T16:31:59.098Z,1.90
2022-09-05T16:34:34.064Z,1.83
2022-09-05T16:37:08.938Z,1.90
2022-09-05T16:39:37.454Z,2.00
2022-09-05T16:42:09.402Z,1.90
2022-09-05T16:44:40.786Z,2.07
2022-09-05T16:47:13.892Z,1.67
2022-09-05T16:49:43.380Z,1.70
2022-09-05T16:52:17.047Z,2.23
2022-09-05T16:54:50.357Z,2.07
2022-09-05T16:57:19.978Z,1.93
2022-09-05T16:59:46.823Z,1.73
2022-09-05T17:02:14.384Z,1.90
2022-09-05T17:05:03.585Z,1.90
2022-09-05T17:07:45.627Z,2.07
2022-09-05T17:10:16.302Z,2.07
2022-09-05T17:12:42.911Z,2.20
2022-09-05T17:15:11.479Z,1.77
2022-09-05T17:18:20.343Z,2.50
2022-09-05T17:20:36.866Z,3.77
2022-09-05T17:27:53.887Z,9.77
2022-09-05T17:29:25.750Z,6.93
2022-09-05T17:30:27.765Z,4.43
2022-09-05T17:31:53.541Z,3.40
2022-09-05T17:34:21.159Z,3.80
2022-09-05T17:36:47.547Z,3.23
2022-09-05T17:39:22.936Z,3.10
2022-09-05T17:42:18.281Z,3.13
2022-09-05T17:44:57.822Z,2.70
2022-09-05T17:47:53.746Z,2.47
2022-09-05T17:50:20.145Z,2.10
2022-09-05T17:53:26.844Z,2.40
2022-09-05T17:55:49.828Z,2.43
2022-09-05T17:58:48.939Z,2.50
2022-09-05T18:01:18.996Z,2.73
2022-09-05T18:03:45.889Z,2.50
2022-09-05T18:06:15.141Z,2.40
2022-09-05T18:08:53.536Z,2.43
2022-09-05T18:11:25.197Z,2.27
2022-09-05T18:14:25.310Z,2.23
2022-09-05T18:17:36.013Z,2.30
2022-09-05T18:19:45.961Z,2.60
2022-09-05T18:22:22.364Z,2.50
2022-09-05T18:25:14.038Z,2.70
2022-09-05T18:28:12.542Z,2.60
2022-09-05T18:30:39.102Z,2.70
2022-09-05T18:33:55.601Z,2.80
2022-09-05T18:35:57.834Z,3.23
2022-09-05T18:38:50.214Z,3.30
2022-09-05T18:41:14.600Z,2.90
2022-09-05T18:44:00.519Z,2.63
2022-09-05T18:46:34.617Z,3.13
2022-09-05T18:50:12.546Z,2.80
2022-09-05T18:52:02.158Z,3.10
2022-09-05T18:54:29.397Z,2.60
2022-09-05T18:57:27.308Z,2.70
2022-09-05T19:00:00.319Z,2.80
2022-09-05T19:02:50.078Z,2.80
2022-09-05T19:05:28.538Z,2.80
2022-09-05T19:07:59.725Z,2.50
2022-09-05T19:10:34.688Z,2.60
2022-09-05T19:13:15.571Z,3.33
2022-09-05T19:16:38.181Z,2.80
2022-09-05T19:19:01.917Z,3.00
2022-09-05T19:21:33.446Z,3.03
2022-09-05T19:24:04.652Z,3.47
2022-09-05T19:26:33.732Z,3.17
2022-09-05T19:36:36.306Z,2.90
2022-09-05T19:36:51.929Z,2.87
2022-09-05T19:37:22.245Z,2.90
2022-09-05T19:37:46.292Z,3.00
2022-09-05T19:46:17.005Z,3.10
2022-09-05T19:47:51.481Z,2.97
2022-09-05T19:49:05.281Z,3.40
2022-09-05T19:52:14.187Z,3.60
2022-09-05T19:55:08.140Z,2.70
2022-09-05T19:58:14.907Z,3.37
2022-09-05T20:07:51.289Z,3.03
2022-09-05T20:10:55.928Z,2.67
2022-09-05T20:13:56.152Z,2.80
2022-09-05T20:16:32.594Z,2.93
2022-09-05T20:19:10.928Z,2.90
2022-09-05T20:21:37.369Z,2.60
2022-09-05T20:24:03.933Z,2.87
2022-09-05T20:26:33.637Z,2.80
2022-09-05T20:29:01.555Z,3.37
2022-09-05T20:31:32.940Z,3.47
2022-09-05T20:34:03.509Z,3.43
2022-09-05T20:43:14.708Z,3.20
2022-09-05T20:43:28.823Z,3.20
2022-09-05T20:43:32.629Z,3.20
2022-09-05T20:45:35.651Z,3.10
2022-09-05T20:54:09.081Z,3.10
2022-09-05T20:54:18.049Z,3.43
2022-09-05T20:54:27.428Z,3.50
2022-09-05T20:56:30.930Z,3.30
2022-09-05T20:59:00.858Z,3.40
2022-09-05T21:01:27.415Z,3.57
2022-09-05T21:03:58.376Z,3.27
2022-09-05T21:06:29.754Z,3.30
2022-09-05T21:09:25.594Z,2.90
2022-09-05T21:11:59.050Z,3.00
2022-09-05T21:14:27.008Z,3.27
2022-09-05T21:17:15.169Z,3.60
2022-09-05T21:19:46.611Z,3.00
2022-09-05T21:22:20.616Z,2.90
2022-09-05T21:24:49.483Z,3.20
2022-09-05T21:27:23.203Z,3.40
2022-09-05T21:29:50.986Z,3.10
2022-09-05T21:32:25.141Z,3.57
2022-09-05T21:34:54.976Z,3.00
2022-09-05T21:37:22.459Z,3.00
2022-09-05T21:39:58.858Z,3.00
2022-09-05T21:46:34.365Z,3.20
2022-09-05T21:47:43.101Z,3.03
2022-09-05T21:48:00.701Z,3.00
2022-09-05T21:50:31.153Z,2.90
2022-09-05T21:53:52.393Z,3.10
2022-09-05T21:59:19.176Z,3.00
2022-09-05T21:59:20.377Z,3.30
2022-09-05T22:01:20.256Z,3.03
2022-09-05T22:04:07.424Z,3.00
2022-09-05T22:06:33.812Z,2.93
2022-09-05T22:09:12.836Z,2.93
2022-09-05T22:11:39.827Z,3.33
2022-09-05T22:14:06.312Z,3.30
2022-09-05T22:16:33.630Z,3.43
2022-09-05T22:19:01.083Z,3.47
2022-09-05T22:21:33.003Z,3.17
2022-09-05T22:24:03.257Z,3.63
2022-09-05T22:26:37.915Z,3.40
2022-09-05T22:29:08.035Z,3.20
2022-09-05T22:31:34.421Z,3.37
2022-09-05T22:34:00.859Z,3.40
2022-09-05T22:36:27.353Z,3.20
2022-09-05T22:38:53.748Z,3.50
2022-09-05T22:41:29.882Z,3.50
2022-09-05T22:43:57.699Z,3.23
2022-09-05T22:46:24.093Z,3.23
2022-09-05T22:48:50.508Z,3.37
2022-09-05T22:51:17.965Z,3.50
2022-09-05T22:53:44.420Z,2.83
2022-09-05T22:56:11.290Z,3.00
2022-09-05T22:58:38.862Z,2.63
2022-09-05T23:01:05.887Z,2.90
2022-09-05T23:03:32.404Z,3.23
2022-09-05T23:06:05.331Z,2.80
2022-09-05T23:08:31.904Z,3.20
2022-09-05T23:10:58.383Z,3.13
2022-09-05T23:13:24.751Z,3.13
2022-09-05T23:15:51.261Z,3.00
2022-09-05T23:18:17.632Z,3.43
2022-09-05T23:20:44.005Z,3.10
2022-09-05T23:23:10.537Z,2.97
2022-09-05T23:25:36.971Z,3.07
2022-09-05T23:28:09.521Z,3.07
2022-09-05T23:30:36.621Z,3.10
2022-09-05T23:33:04.901Z,3.30
2022-09-05T23:35:31.326Z,3.40
2022-09-05T23:37:57.677Z,3.27
2022-09-05T23:40:24.777Z,3.20
2022-09-05T23:42:52.036Z,3.17
2022-09-05T23:45:18.710Z,3.30
2022-09-05T23:47:45.040Z,3.13
2022-09-05T23:50:12.199Z,2.73
2022-09-05T23:52:39.546Z,2.97
2022-09-05T23:55:06.375Z,3.30
2022-09-05T23:57:32.722Z,2.90
2022-09-05T23:59:59.072Z,2.97
